Swedesboro, New Jersey
Current Conditions -  °F | °C
As of 7:54 PM on Sunday 28 Dec 2014 (Local Time) from KPHL Reporting Station
Overcast Overcast  
Wind Chill: 11°   Ceiling: 4000
Heat Index: 11°   Visibility: 10mi
Dew Point:   Wind: 7mph
Humidity: 74%   Direction: 290°WNW
Pressure: 30.02"   Gusts: NA
Location:  39.75°N, 75.31°W
Report Text: KPHL 290054Z 29006KT 10SM BKN040 OVC080 11/06 A3002 RMK AO2 RAE25 SLP166 P0000 T01060061
Loading
Personal Weather Stations






























Interactive Weather Map New forecast layout! Learn more

10-Day Weather Forecast

Advertisements
Track Severe Weather on mobile